createdAt,value
2018-04-29T00:00:59.881Z,27.37
2018-04-29T00:03:27.379Z,24.70
2018-04-29T00:05:56.647Z,30.13
2018-04-29T00:08:28.632Z,27.97
2018-04-29T00:10:56.367Z,30.93
2018-04-29T00:13:24.983Z,40.17
2018-04-29T00:15:56.516Z,37.27
2018-04-29T00:18:23.984Z,20.67
2018-04-29T00:20:51.501Z,30.90
2018-04-29T00:23:25.167Z,37.30
2018-04-29T00:25:54.370Z,36.63
2018-04-29T00:28:22.643Z,39.30
2018-04-29T00:30:50.900Z,33.77
2018-04-29T00:33:21.092Z,27.57
2018-04-29T00:35:48.599Z,38.17
2018-04-29T00:38:17.807Z,38.13
2018-04-29T00:40:51.409Z,42.17
2018-04-29T00:43:20.897Z,44.00
2018-04-29T00:45:51.845Z,43.23
2018-04-29T00:48:25.241Z,44.83
2018-04-29T00:50:58.177Z,42.62
2018-04-29T00:53:25.845Z,42.97
2018-04-29T00:55:57.732Z,34.63
2018-04-29T00:58:25.250Z,19.17
2018-04-29T01:00:56.023Z,17.13
2018-04-29T01:03:24.504Z,20.93
2018-04-29T01:05:55.534Z,19.20
2018-04-29T01:08:23.092Z,21.37
2018-04-29T01:10:50.754Z,23.47
2018-04-29T01:13:19.136Z,21.43
2018-04-29T01:15:46.609Z,22.53
2018-04-29T01:18:15.075Z,22.53
2018-04-29T01:20:42.557Z,30.93
2018-04-29T01:23:13.452Z,31.40
2018-04-29T01:25:43.904Z,28.40
2018-04-29T01:28:11.385Z,32.40
2018-04-29T01:30:44.251Z,23.53
2018-04-29T01:36:05.116Z,46.67
2018-04-29T01:38:32.645Z,49.57
2018-04-29T01:41:00.124Z,44.70
2018-04-29T01:43:28.385Z,60.33
2018-04-29T01:45:57.655Z,47.90
2018-04-29T01:48:27.054Z,54.47
2018-04-29T01:50:54.531Z,74.00
2018-04-29T01:53:21.997Z,74.83
2018-04-29T01:55:55.780Z,80.57
2018-04-29T01:58:24.330Z,66.77
2018-04-29T02:00:51.792Z,71.37
2018-04-29T02:03:19.304Z,48.23
2018-04-29T02:05:47.754Z,46.33
2018-04-29T02:08:17.146Z,47.90
2018-04-29T02:10:44.682Z,74.33
2018-04-29T02:13:19.138Z,74.83
2018-04-29T02:15:49.899Z,57.07
2018-04-29T02:18:19.068Z,75.13
2018-04-29T02:20:46.549Z,75.67
2018-04-29T02:23:15.983Z,45.00
2018-04-29T02:25:54.241Z,35.73
2018-04-29T02:28:21.715Z,21.40
2018-04-29T02:30:52.934Z,19.47
2018-04-29T02:33:23.865Z,17.50
2018-04-29T02:35:51.355Z,19.83
2018-04-29T02:38:19.834Z,27.20
2018-04-29T02:40:47.320Z,29.20
2018-04-29T02:43:15.624Z,48.97
2018-04-29T02:45:43.122Z,57.60
2018-04-29T02:48:14.927Z,39.70
2018-04-29T02:50:43.404Z,45.07
2018-04-29T02:53:11.695Z,66.67
2018-04-29T02:55:39.978Z,67.57
2018-04-29T02:58:08.411Z,72.47
2018-04-29T03:00:41.552Z,68.50
2018-04-29T03:03:09.268Z,55.17
2018-04-29T03:05:36.778Z,70.50
2018-04-29T03:08:04.255Z,64.03
2018-04-29T03:10:37.709Z,44.97
2018-04-29T03:13:05.368Z,25.70
2018-04-29T03:15:39.107Z,38.93
2018-04-29T03:18:08.213Z,40.30
2018-04-29T03:20:35.711Z,32.93
2018-04-29T03:23:04.110Z,37.67
2018-04-29T03:25:32.762Z,69.77
2018-04-29T03:28:00.287Z,75.57
2018-04-29T03:30:27.791Z,65.87
2018-04-29T03:32:56.195Z,51.57
2018-04-29T03:35:23.722Z,81.17
2018-04-29T03:37:51.201Z,77.20
2018-04-29T03:40:19.471Z,100.53
2018-04-29T03:42:47.824Z,89.67
2018-04-29T03:45:15.308Z,98.10
2018-04-29T03:47:42.763Z,71.93
2018-04-29T03:50:11.072Z,64.93
2018-04-29T03:52:44.258Z,34.73
2018-04-29T03:55:22.774Z,26.20
2018-04-29T03:58:04.128Z,23.07
2018-04-29T04:00:55.665Z,24.77
2018-04-29T04:03:37.750Z,22.93
2018-04-29T04:06:27.896Z,21.07
2018-04-29T04:08:56.321Z,23.53
2018-04-29T04:11:23.960Z,26.20
2018-04-29T04:13:52.358Z,22.70
2018-04-29T04:16:21.623Z,27.30
2018-04-29T04:18:51.055Z,32.03
2018-04-29T04:21:19.447Z,35.63
2018-04-29T04:23:46.984Z,47.77
2018-04-29T04:26:17.110Z,56.87
2018-04-29T04:28:44.613Z,64.87
2018-04-29T04:31:12.874Z,68.93
2018-04-29T04:33:45.914Z,60.87
2018-04-29T04:36:13.413Z,36.03
2018-04-29T04:38:45.274Z,23.97
2018-04-29T04:41:12.763Z,22.70
2018-04-29T04:43:41.943Z,23.60
2018-04-29T04:46:09.472Z,20.60
2018-04-29T04:48:38.900Z,27.20
2018-04-29T04:51:08.090Z,39.77
2018-04-29T04:53:38.714Z,37.17
2018-04-29T04:56:07.214Z,34.03
2018-04-29T04:58:36.379Z,32.37
2018-04-29T05:01:04.766Z,25.67
2018-04-29T05:03:36.192Z,22.97
2018-04-29T05:06:04.439Z,19.37
2018-04-29T05:08:32.900Z,17.97
2018-04-29T05:11:01.438Z,19.80
2018-04-29T05:13:29.904Z,15.33
2018-04-29T05:15:57.385Z,15.03
2018-04-29T05:18:25.973Z,19.63
2018-04-29T05:20:53.486Z,16.80
2018-04-29T05:23:20.957Z,15.73
2018-04-29T05:25:48.486Z,14.63
2018-04-29T05:28:16.756Z,16.10
2018-04-29T05:30:44.995Z,17.77
2018-04-29T05:33:12.919Z,17.00
2018-04-29T05:35:42.162Z,16.87
2018-04-29T05:38:09.649Z,17.10
2018-04-29T05:40:38.162Z,18.60
2018-04-29T05:43:10.473Z,15.57
2018-04-29T05:45:43.774Z,15.97
2018-04-29T05:48:11.287Z,15.70
2018-04-29T05:50:38.841Z,16.13
2018-04-29T05:53:07.092Z,18.00
2018-04-29T05:55:34.576Z,16.23
2018-04-29T05:58:05.147Z,17.83
2018-04-29T06:00:42.670Z,20.30
2018-04-29T06:03:14.296Z,24.53
2018-04-29T06:05:44.895Z,24.37
2018-04-29T06:08:13.299Z,23.67
2018-04-29T06:10:40.774Z,21.60
2018-04-29T06:13:12.083Z,21.10
2018-04-29T06:15:42.748Z,18.70
2018-04-29T06:18:13.542Z,19.93
2018-04-29T06:20:41.784Z,19.37
2018-04-29T06:23:13.987Z,16.60
2018-04-29T06:25:42.455Z,19.70
2018-04-29T06:28:11.601Z,19.03
2018-04-29T06:30:39.962Z,19.20
2018-04-29T06:33:14.580Z,22.00
2018-04-29T06:35:45.342Z,21.67
2018-04-29T06:38:12.810Z,18.47
2018-04-29T06:40:40.271Z,17.67
2018-04-29T06:43:07.764Z,17.17
2018-04-29T06:45:35.754Z,17.27
2018-04-29T06:48:03.218Z,19.50
2018-04-29T06:50:35.082Z,20.03
2018-04-29T06:53:02.577Z,18.00
2018-04-29T06:55:31.943Z,18.43
2018-04-29T06:58:00.411Z,15.60
2018-04-29T07:00:39.665Z,14.97
2018-04-29T07:03:07.163Z,18.00
2018-04-29T07:05:34.646Z,14.13
2018-04-29T07:08:05.457Z,16.37
2018-04-29T07:10:36.135Z,16.43
2018-04-29T07:13:03.731Z,15.40
2018-04-29T07:15:31.957Z,16.57
2018-04-29T07:18:00.191Z,15.87
2018-04-29T07:20:31.047Z,16.23
2018-04-29T07:22:59.400Z,14.30
2018-04-29T07:25:32.881Z,14.93
2018-04-29T07:28:00.345Z,15.10
2018-04-29T07:30:36.532Z,14.77
2018-04-29T07:33:04.041Z,16.23
2018-04-29T07:35:39.837Z,14.67
2018-04-29T07:38:07.333Z,15.73
2018-04-29T07:40:38.745Z,17.57
2018-04-29T07:43:07.088Z,16.20
2018-04-29T07:45:41.085Z,13.80
2018-04-29T07:48:08.540Z,14.40
2018-04-29T07:50:38.918Z,13.80
2018-04-29T07:53:06.783Z,15.43
2018-04-29T07:55:34.260Z,14.98
2018-04-29T07:58:02.329Z,15.73
2018-04-29T08:00:31.243Z,16.20
2018-04-29T08:02:59.547Z,14.18
2018-04-29T08:05:30.821Z,15.48
2018-04-29T08:07:59.215Z,15.77
2018-04-29T08:10:28.711Z,16.17
2018-04-29T08:12:56.201Z,16.33
2018-04-29T08:15:23.759Z,14.55
2018-04-29T08:17:52.122Z,16.77
2018-04-29T08:20:19.581Z,15.40
2018-04-29T08:22:47.127Z,15.15
2018-04-29T08:25:22.885Z,15.07
2018-04-29T08:27:52.242Z,16.25
2018-04-29T08:30:19.703Z,17.33
2018-04-29T08:32:47.178Z,17.92
2018-04-29T08:35:18.182Z,16.62
2018-04-29T08:37:52.670Z,16.70
2018-04-29T08:40:22.132Z,16.58
2018-04-29T08:42:50.028Z,15.77
2018-04-29T08:45:21.022Z,15.57
2018-04-29T08:47:50.152Z,14.23
2018-04-29T08:50:18.441Z,15.95
2018-04-29T08:52:45.870Z,14.35
2018-04-29T08:55:14.280Z,14.45
2018-04-29T08:57:42.669Z,14.15
2018-04-29T09:00:12.028Z,13.70
2018-04-29T09:02:39.535Z,15.30
2018-04-29T09:05:06.994Z,14.30
2018-04-29T09:07:36.359Z,13.55
2018-04-29T09:10:09.363Z,12.55
2018-04-29T09:12:37.705Z,14.38
2018-04-29T09:15:05.142Z,15.30
2018-04-29T09:17:39.136Z,13.45
2018-04-29T09:20:08.477Z,13.62
2018-04-29T09:22:37.846Z,13.65
2018-04-29T09:25:05.299Z,13.85
2018-04-29T09:27:33.057Z,13.15
2018-04-29T09:30:01.391Z,13.70
2018-04-29T09:32:29.764Z,12.30
2018-04-29T09:34:59.220Z,12.85
2018-04-29T09:37:26.669Z,12.77
2018-04-29T09:39:54.124Z,12.60
2018-04-29T09:42:22.490Z,12.88
2018-04-29T09:44:49.943Z,12.98
2018-04-29T09:47:17.415Z,11.35
2018-04-29T09:49:50.523Z,10.95
2018-04-29T09:52:19.222Z,11.00
2018-04-29T09:54:46.666Z,13.07
2018-04-29T09:57:19.565Z,12.63
2018-04-29T09:59:47.806Z,11.68
2018-04-29T10:02:17.184Z,11.88
2018-04-29T10:04:45.768Z,11.77
2018-04-29T10:07:15.116Z,13.07
2018-04-29T10:09:42.579Z,12.90
2018-04-29T10:12:11.010Z,12.75
2018-04-29T10:14:40.164Z,12.63
2018-04-29T10:17:11.767Z,11.30
2018-04-29T10:19:39.246Z,10.15
2018-04-29T10:22:08.627Z,10.30
2018-04-29T10:24:36.162Z,11.88
2018-04-29T10:27:04.537Z,12.90
2018-04-29T10:29:31.989Z,12.68
2018-04-29T10:32:00.207Z,9.98
2018-04-29T10:34:28.584Z,11.63
2018-04-29T10:37:01.423Z,11.77
2018-04-29T10:39:33.089Z,11.93
2018-04-29T10:42:00.548Z,11.85
2018-04-29T10:44:29.977Z,11.60
2018-04-29T10:47:08.027Z,11.80
2018-04-29T10:49:36.463Z,11.25
2018-04-29T10:52:03.946Z,11.27
2018-04-29T10:54:31.432Z,11.88
2018-04-29T10:56:58.896Z,12.35
2018-04-29T10:59:26.350Z,10.98
2018-04-29T11:01:53.807Z,12.52
2018-04-29T11:04:22.325Z,12.68
2018-04-29T11:06:49.729Z,12.40
2018-04-29T11:09:17.190Z,11.73
2018-04-29T11:11:46.783Z,12.75
2018-04-29T11:14:18.963Z,10.82
2018-04-29T11:16:51.388Z,12.23
2018-04-29T11:19:19.779Z,11.85
2018-04-29T11:21:53.300Z,11.88
2018-04-29T11:24:25.261Z,11.15
2018-04-29T11:26:52.749Z,11.80
2018-04-29T11:29:22.131Z,11.30
2018-04-29T11:31:52.279Z,13.50
2018-04-29T11:34:25.285Z,12.02
2018-04-29T11:36:53.677Z,13.48
2018-04-29T11:39:24.402Z,12.68
2018-04-29T11:41:55.296Z,13.52
2018-04-29T11:44:23.659Z,13.18
2018-04-29T11:46:51.159Z,13.02
2018-04-29T11:49:19.395Z,14.07
2018-04-29T11:51:47.736Z,14.43
2018-04-29T11:54:18.553Z,11.80
2018-04-29T11:56:46.020Z,12.02
2018-04-29T11:59:15.466Z,12.02
2018-04-29T12:01:50.521Z,12.00
2018-04-29T12:04:19.565Z,11.02
2018-04-29T12:06:47.048Z,12.63
2018-04-29T12:09:16.424Z,12.00
2018-04-29T12:11:47.268Z,12.07
2018-04-29T12:14:14.715Z,12.18
2018-04-29T12:16:43.130Z,14.45
2018-04-29T12:19:11.498Z,13.85
2018-04-29T12:21:40.850Z,12.30
2018-04-29T12:24:09.151Z,13.13
2018-04-29T12:26:37.519Z,12.80
2018-04-29T12:29:05.768Z,12.77
2018-04-29T12:31:34.938Z,13.32
2018-04-29T12:34:02.447Z,13.25
2018-04-29T12:36:30.658Z,13.50
2018-04-29T12:38:59.122Z,12.13
2018-04-29T12:41:28.488Z,11.68
2018-04-29T12:44:00.324Z,11.30
2018-04-29T12:46:28.682Z,11.48
2018-04-29T12:48:56.153Z,11.25
2018-04-29T12:51:24.507Z,9.80
2018-04-29T12:53:51.994Z,11.82
2018-04-29T12:56:19.444Z,10.00
2018-04-29T12:58:51.806Z,11.48
2018-04-29T13:01:20.252Z,10.50
2018-04-29T13:03:50.408Z,11.38
2018-04-29T13:06:19.847Z,13.40
2018-04-29T13:08:51.141Z,13.93
2018-04-29T13:11:21.422Z,13.55
2018-04-29T13:13:49.780Z,13.35
2018-04-29T13:16:22.253Z,13.90
2018-04-29T13:18:53.762Z,14.00
2018-04-29T13:21:39.203Z,13.57
2018-04-29T13:24:16.638Z,13.55
2018-04-29T13:26:50.472Z,14.57
2018-04-29T13:29:21.406Z,14.00
2018-04-29T13:31:53.092Z,13.60
2018-04-29T13:34:20.548Z,14.55
2018-04-29T13:36:48.999Z,14.48
2018-04-29T13:39:16.802Z,16.05
2018-04-29T13:41:46.280Z,15.43
2018-04-29T13:44:13.869Z,15.75
2018-04-29T13:46:45.357Z,16.02
2018-04-29T13:49:13.719Z,17.37
2018-04-29T13:51:50.059Z,16.12
2018-04-29T13:54:17.532Z,16.05
2018-04-29T13:56:45.009Z,14.77
2018-04-29T13:59:21.560Z,14.50
2018-04-29T14:01:52.016Z,15.43
2018-04-29T14:04:22.642Z,17.27
2018-04-29T14:06:50.875Z,15.20
2018-04-29T14:09:18.333Z,16.70
2018-04-29T14:11:45.793Z,14.63
2018-04-29T14:14:14.243Z,16.08
2018-04-29T14:16:41.719Z,18.33
2018-04-29T14:19:10.953Z,14.15
2018-04-29T14:21:38.408Z,13.62
2018-04-29T14:24:07.185Z,13.55
2018-04-29T14:26:35.580Z,13.73
2018-04-29T14:29:03.063Z,15.45
2018-04-29T14:31:33.962Z,14.23
2018-04-29T14:34:03.415Z,15.70
2018-04-29T14:36:31.905Z,15.68
2018-04-29T14:39:00.569Z,16.80
2018-04-29T14:41:28.799Z,15.80
2018-04-29T14:43:57.228Z,16.65
2018-04-29T14:46:24.839Z,17.35
2018-04-29T14:48:52.273Z,16.65
2018-04-29T14:51:25.476Z,15.55
2018-04-29T14:53:53.852Z,17.62
2018-04-29T14:56:22.196Z,15.98
2018-04-29T14:58:50.614Z,16.08
2018-04-29T15:01:18.131Z,15.77
2018-04-29T15:03:50.172Z,15.68
2018-04-29T15:06:18.421Z,14.05
2018-04-29T15:08:45.906Z,15.32
2018-04-29T15:11:13.369Z,14.95
2018-04-29T15:13:41.732Z,13.10
2018-04-29T15:16:15.077Z,13.30
2018-04-29T15:18:56.145Z,11.88
2018-04-29T15:21:23.631Z,12.73
2018-04-29T15:23:56.520Z,13.43
2018-04-29T15:26:28.254Z,14.00
2018-04-29T15:29:05.787Z,12.17
2018-04-29T15:31:37.672Z,13.77
2018-04-29T15:34:05.140Z,14.18
2018-04-29T15:36:33.595Z,13.03
2018-04-29T15:39:06.973Z,14.10
2018-04-29T15:41:34.432Z,14.57
2018-04-29T15:44:03.807Z,14.00
2018-04-29T15:46:33.369Z,12.53
2018-04-29T15:49:03.900Z,13.03
2018-04-29T15:51:31.519Z,13.30
2018-04-29T15:54:05.186Z,14.07
2018-04-29T15:56:33.408Z,16.30
2018-04-29T15:59:00.911Z,14.83
2018-04-29T16:01:29.294Z,15.63
2018-04-29T16:03:57.590Z,15.77
2018-04-29T16:06:25.042Z,15.03
2018-04-29T16:08:57.457Z,19.17
2018-04-29T16:11:26.826Z,16.67
2018-04-29T16:13:57.772Z,16.70
2018-04-29T16:16:25.215Z,19.67
2018-04-29T16:18:53.649Z,15.97
2018-04-29T16:21:22.007Z,16.87
2018-04-29T16:23:49.502Z,18.73
2018-04-29T16:26:16.959Z,19.87
2018-04-29T16:28:52.872Z,20.77
2018-04-29T16:31:20.385Z,20.57
2018-04-29T16:33:48.027Z,21.57
2018-04-29T16:36:18.912Z,22.33
2018-04-29T16:38:46.416Z,22.30
2018-04-29T16:41:15.289Z,19.57
2018-04-29T16:43:42.762Z,22.10
2018-04-29T16:46:11.556Z,23.90
2018-04-29T16:48:39.840Z,19.77
2018-04-29T16:51:08.271Z,21.33
2018-04-29T16:53:41.741Z,23.63
2018-04-29T16:56:09.967Z,20.80
2018-04-29T16:58:37.443Z,22.47
2018-04-29T17:01:08.954Z,22.53
2018-04-29T17:03:40.528Z,25.80
2018-04-29T17:06:08.904Z,25.53
2018-04-29T17:08:37.262Z,24.80
2018-04-29T17:11:04.716Z,26.03
2018-04-29T17:13:34.145Z,30.37
2018-04-29T17:16:01.627Z,28.23
2018-04-29T17:18:32.439Z,29.23
2018-04-29T17:20:59.948Z,30.67
2018-04-29T17:23:28.355Z,32.23
2018-04-29T17:26:02.311Z,30.27
2018-04-29T17:28:30.690Z,33.83
2018-04-29T17:30:58.136Z,30.70
2018-04-29T17:33:25.744Z,31.60
2018-04-29T17:35:53.962Z,31.00
2018-04-29T17:38:23.559Z,28.07
2018-04-29T17:40:51.030Z,28.47
2018-04-29T17:43:18.590Z,28.77
2018-04-29T17:45:46.862Z,29.70
2018-04-29T17:48:14.332Z,27.87
2018-04-29T17:50:43.767Z,30.07
2018-04-29T17:53:11.235Z,28.50
2018-04-29T17:55:40.504Z,28.27
2018-04-29T17:58:11.427Z,27.10
2018-04-29T18:00:39.880Z,31.70
2018-04-29T18:03:10.871Z,28.67
2018-04-29T18:05:43.212Z,30.10
2018-04-29T18:08:10.938Z,29.37
2018-04-29T18:10:40.353Z,32.10
2018-04-29T18:13:07.783Z,31.57
2018-04-29T18:15:35.274Z,33.23
2018-04-29T18:18:02.755Z,31.07
2018-04-29T18:20:35.319Z,33.03
2018-04-29T18:23:02.775Z,29.23
2018-04-29T18:25:30.217Z,28.73
2018-04-29T18:28:01.787Z,28.27
2018-04-29T18:30:29.243Z,27.27
2018-04-29T18:32:58.631Z,24.80
2018-04-29T18:35:26.890Z,22.90
2018-04-29T18:37:57.661Z,22.47
2018-04-29T18:40:25.134Z,23.03
2018-04-29T18:42:53.362Z,21.70
2018-04-29T18:45:24.753Z,20.67
2018-04-29T18:47:53.882Z,21.50
2018-04-29T18:50:25.391Z,19.30
2018-04-29T18:52:58.088Z,19.90
2018-04-29T18:55:26.505Z,19.57
2018-04-29T18:57:53.975Z,19.92
2018-04-29T19:00:22.362Z,20.23
2018-04-29T19:02:58.633Z,20.47
2018-04-29T19:08:23.338Z,19.37
2018-04-29T19:10:50.776Z,18.97
2018-04-29T19:13:18.284Z,21.00
2018-04-29T19:15:46.242Z,21.60
2018-04-29T19:18:15.045Z,19.17
2018-04-29T19:20:43.773Z,20.37
2018-04-29T19:23:11.598Z,20.53
2018-04-29T19:25:42.378Z,19.97
2018-04-29T19:28:10.405Z,20.20
2018-04-29T19:30:43.062Z,20.77
2018-04-29T19:33:16.793Z,18.97
2018-04-29T19:35:48.083Z,19.87
2018-04-29T19:38:26.251Z,19.83
2018-04-29T19:40:58.424Z,15.87
2018-04-29T19:43:34.219Z,15.80
2018-04-29T19:48:51.362Z,15.23
2018-04-29T19:51:35.204Z,15.80
2018-04-29T19:54:27.466Z,16.37
2018-04-29T19:57:09.799Z,15.43
2018-04-29T20:05:12.384Z,14.93
2018-04-29T20:07:51.974Z,14.90
2018-04-29T20:10:27.991Z,16.53
2018-04-29T20:13:00.458Z,15.67
2018-04-29T20:15:36.855Z,15.60
2018-04-29T20:18:14.556Z,17.17
2018-04-29T20:20:52.670Z,18.83
2018-04-29T20:23:38.201Z,16.83
2018-04-29T20:26:22.279Z,16.20
2018-04-29T20:31:51.923Z,19.50
2018-04-29T20:34:39.143Z,17.37
2018-04-29T20:37:29.858Z,19.67
2018-04-29T20:42:42.306Z,21.47
2018-04-29T20:45:20.389Z,22.63
2018-04-29T20:48:04.192Z,22.07
2018-04-29T20:50:40.958Z,20.93
2018-04-29T20:53:24.540Z,26.23
2018-04-29T20:55:57.448Z,22.57
2018-04-29T20:58:35.159Z,22.53
2018-04-29T21:03:54.198Z,24.83
2018-04-29T21:06:34.430Z,22.10
2018-04-29T21:09:15.884Z,28.10
2018-04-29T21:16:47.211Z,22.77
2018-04-29T21:22:13.630Z,26.67
2018-04-29T21:27:30.962Z,27.17
2018-04-29T21:29:59.355Z,26.80
2018-04-29T21:32:28.390Z,29.10
2018-04-29T21:34:55.837Z,25.63
2018-04-29T21:37:23.304Z,23.77
2018-04-29T21:39:52.235Z,25.87
2018-04-29T21:42:24.291Z,23.67
2018-04-29T21:44:52.477Z,25.00
2018-04-29T21:47:19.922Z,25.77
2018-04-29T21:49:47.405Z,25.53
2018-04-29T21:52:14.859Z,24.93
2018-04-29T21:54:42.630Z,27.30
2018-04-29T21:57:10.058Z,27.07
2018-04-29T21:59:37.495Z,27.70
2018-04-29T22:02:05.814Z,27.00
2018-04-29T22:04:33.990Z,28.40
2018-04-29T22:07:01.423Z,30.40
2018-04-29T22:09:28.936Z,25.37
2018-04-29T22:11:56.631Z,29.90
2018-04-29T22:14:24.832Z,29.80
2018-04-29T22:16:52.401Z,29.90
2018-04-29T22:19:19.969Z,27.83
2018-04-29T22:21:47.429Z,27.87
2018-04-29T22:24:14.854Z,29.13
2018-04-29T22:26:42.316Z,30.00
2018-04-29T22:29:09.799Z,27.67
2018-04-29T22:31:37.258Z,27.23
2018-04-29T22:34:05.118Z,26.77
2018-04-29T22:36:32.574Z,26.27
2018-04-29T22:39:00.031Z,26.00
2018-04-29T22:41:27.462Z,26.23
2018-04-29T22:43:55.726Z,27.23
2018-04-29T22:46:23.923Z,26.30
2018-04-29T22:48:51.405Z,27.20
2018-04-29T22:51:18.833Z,25.23
2018-04-29T22:53:46.295Z,25.20
2018-04-29T22:56:13.771Z,26.60
2018-04-29T22:58:41.963Z,23.13
2018-04-29T23:01:09.418Z,21.80
2018-04-29T23:03:37.844Z,23.10
2018-04-29T23:06:06.042Z,29.40
2018-04-29T23:08:33.728Z,23.63
2018-04-29T23:11:01.218Z,25.60
2018-04-29T23:13:28.689Z,17.83
2018-04-29T23:15:56.119Z,23.70
2018-04-29T23:18:24.471Z,22.13
2018-04-29T23:20:51.892Z,23.87
2018-04-29T23:23:20.087Z,22.60
2018-04-29T23:25:47.563Z,28.13
2018-04-29T23:28:15.226Z,27.40
2018-04-29T23:30:44.207Z,22.90
2018-04-29T23:33:11.682Z,26.63
2018-04-29T23:35:39.886Z,25.47
2018-04-29T23:38:07.320Z,24.80
2018-04-29T23:40:34.867Z,25.30
2018-04-29T23:43:02.277Z,26.10
2018-04-29T23:45:30.503Z,26.60
2018-04-29T23:47:57.939Z,25.17
2018-04-29T23:50:25.373Z,30.30
2018-04-29T23:52:53.587Z,28.93
2018-04-29T23:55:21.049Z,28.00
2018-04-29T23:57:48.538Z,26.80
